EST,Max TemperatureF,Mean TemperatureF,Min TemperatureF,Max Dew PointF,MeanDew PointF,Min DewpointF,Max Humidity, Mean Humidity, Min Humidity, Max Sea Level PressureIn, Mean Sea Level PressureIn, Min Sea Level PressureIn, Max VisibilityMiles, Mean VisibilityMiles, Min VisibilityMiles, Max Wind SpeedMPH, Mean Wind SpeedMPH, Max Gust SpeedMPH,PrecipitationIn, CloudCover, Events, WindDirDegrees
2014-1-1,66,63,59,63,60,54,100,89,78,30.27,30.19,30.08,10,7,0,15,9,17,0.02,8,Fog-Rain,25
2014-1-2,83,72,61,71,66,60,100,83,65,30.07,29.94,29.84,10,6,0,26,11,32,0.42,7,Fog-Rain-Thunderstorm,220
2014-1-3,62,53,44,57,36,23,87,63,38,30.29,30.16,29.95,10,10,10,26,15,33,0.00,6,,351
2014-1-4,70,58,46,58,52,41,90,76,61,30.26,30.18,30.09,10,10,10,14,7,23,0.00,7,,15
2014-1-5,82,71,59,68,62,57,93,72,51,30.10,30.02,29.96,10,10,9,10,5,16,0.00,5,,34
2014-1-6,79,62,44,66,53,20,100,69,37,30.31,30.07,29.96,10,7,0,26,13,33,T,6,Fog,257
2014-1-7,49,42,34,30,20,11,76,51,25,30.44,30.39,30.30,10,10,10,23,14,28,0.00,4,,358
2014-1-8,68,53,38,51,43,30,82,65,48,30.42,30.34,30.30,10,10,10,21,11,25,0.00,6,,23
2014-1-9,72,66,59,65,62,52,87,80,72,30.32,30.26,30.22,10,8,1,18,9,23,0.27,8,Rain,56
2014-1-10,81,75,68,69,66,64,93,78,62,30.25,30.16,30.08,10,8,0,12,6,16,0.02,7,,106
2014-1-11,86,78,69,70,67,62,97,73,48,30.10,30.03,29.92,10,7,0,28,12,33,0.41,7,Fog-Rain-Thunderstorm,193
2014-1-12,70,60,50,64,47,34,93,60,26,30.23,30.14,30.01,10,10,10,16,8,21,0.00,2,,352
2014-1-13,80,65,49,63,54,44,87,68,48,30.18,30.10,29.99,10,10,10,15,7,21,0.00,5,,135
2014-1-14,77,68,59,67,62,54,90,72,54,30.04,29.98,29.91,10,9,5,24,7,29,0.03,7,Rain,248
2014-1-15,66,59,51,52,46,35,89,63,36,30.06,29.99,29.95,10,10,8,16,5,20,0.00,6,Fog,285
2014-1-16,56,49,42,50,30,15,89,55,20,30.18,30.08,29.98,10,10,10,22,11,28,0.03,3,Rain,305
2014-1-17,65,50,34,44,30,15,82,51,19,30.24,30.16,30.12,10,10,10,12,3,24,0.00,4,,264
2014-1-18,56,47,37,47,24,7,77,46,14,30.29,30.21,30.11,10,10,10,22,9,25,0.00,0,,290
2014-1-19,70,50,30,50,38,27,83,58,32,30.26,30.18,30.13,10,10,10,18,6,23,T,1,,246
2014-1-20,72,56,39,50,42,37,96,63,29,30.18,30.13,30.04,10,5,0,14,5,23,0.00,2,Fog,237
2014-1-21,76,64,51,55,52,41,93,68,43,30.05,29.94,29.82,10,7,0,30,10,40,0.05,5,Fog,244
2014-1-22,56,49,41,34,24,15,59,41,22,30.21,30.09,29.93,10,10,10,21,9,26,0.00,0,,305
2014-1-23,63,50,37,36,27,14,76,46,16,30.38,30.30,30.20,10,10,10,16,7,18,0.00,1,,2
2014-1-24,59,51,43,35,28,14,67,45,22,30.48,30.39,30.30,10,10,10,20,12,25,0.00,5,,3
2014-1-25,71,58,45,47,42,35,86,62,38,30.28,30.15,30.04,10,10,10,18,6,22,0.01,5,Rain,273
2014-1-26,69,58,47,61,54,44,97,80,63,30.09,30.04,30.00,10,8,2,14,4,21,0.02,7,Rain,249
2014-1-27,76,68,60,63,60,57,90,75,60,30.04,30.00,29.94,10,8,2,16,5,20,0.59,6,Rain,243
2014-1-28,81,67,53,59,57,54,100,71,42,30.08,30.02,29.96,10,6,0,14,4,17,0.00,4,Fog,222
2014-1-29,68,57,45,61,49,42,93,86,78,30.21,30.12,29.99,10,8,1,23,11,30,0.40,8,Rain,354
2014-1-30,52,49,45,50,46,43,100,93,86,30.20,30.15,30.12,10,5,0,20,12,23,0.24,8,Fog-Rain,354
2014-1-31,66,58,50,63,56,48,100,95,89,30.15,30.11,30.05,8,2,0,12,8,,0.41,8,Fog-Rain,14